Jack C. Davis Observatory, Carson City, Nevada Weather observations

Data are for observation ending at time listed.
 Day   Time    Ave.   Ave.  Ave.  Vector   Max.   Stn.    Total    Solar   Ave.  
  of    of     Air    Rel.  Wind   Wind    Wind   Baro.  Precip.   Rad.    Soil  
Year   Day     Temp.  Hum.  Speed  Dir.    Gust   Pres.                    Temp. 
2016   (PST)    F      %     mph   deg.    mph     mb.     in.     W/m2     F   
------------------------------------------------------------------------------
 342   17:40   29.3    59    3.9   166      6.5   600.3    0.00       1    999.0
 342   17:50   29.3    60    3.8   159      6.1   600.3    0.00       1    999.0
 342   18:00   29.2    59    5.0   162      7.0   600.4    0.00       1    999.0
 342   18:10   29.0    61    4.9   168      8.2   600.3    0.00       0    999.0
 342   18:20   27.1    78    5.8   203     10.8   600.3    0.00       0    999.0
 342   18:30   25.9    86    3.8   187      8.0   600.4    0.00       0    999.0
 342   18:40   25.5    89    5.5   162      9.8   600.3    0.00       0    999.0
 342   18:50   25.1    90    4.7   175      6.7   600.3    0.00       0    999.0
 342   19:00   25.0    91    3.9   170      6.7   600.4    0.00       0    999.0
 342   19:10  999.0   999  999.0   999    999.0   999.0   999.00     999    999.0
 342   19:20  999.0   999  999.0   999    999.0   999.0   999.00     999    999.0
 342   19:30  999.0   999  999.0   999    999.0   999.0   999.00     999    999.0
 342   19:40  999.0   999  999.0   999    999.0   999.0   999.00     999    999.0
 342   19:50  999.0   999  999.0   999    999.0   999.0   999.00     999    999.0
 342   20:00  999.0   999  999.0   999    999.0   999.0   999.00     999    999.0
 342   20:10  999.0   999  999.0   999    999.0   999.0   999.00     999    999.0
 342   20:20  999.0   999  999.0   999    999.0   999.0   999.00     999    999.0
 342   20:30  999.0   999  999.0   999    999.0   999.0   999.00     999    999.0
 342   20:40  999.0   999  999.0   999    999.0   999.0   999.00     999    999.0
 342   20:50  999.0   999  999.0   999    999.0   999.0   999.00     999    999.0
 342   21:00  999.0   999  999.0   999    999.0   999.0   999.00     999    999.0
 342   21:10  999.0   999  999.0   999    999.0   999.0   999.00     999    999.0
 342   21:20  999.0   999  999.0   999    999.0   999.0   999.00     999    999.0
 342   21:30  999.0   999  999.0   999    999.0   999.0   999.00     999    999.0
 342   21:40  999.0   999  999.0   999    999.0   999.0   999.00     999    999.0
 342   21:50  999.0   999  999.0   999    999.0   999.0   999.00     999    999.0
 342   22:00  999.0   999  999.0   999    999.0   999.0   999.00     999    999.0
 342   22:10  999.0   999  999.0   999    999.0   999.0   999.00     999    999.0
 342   22:20  999.0   999  999.0   999    999.0   999.0   999.00     999    999.0
 342   22:30  999.0   999  999.0   999    999.0   999.0   999.00     999    999.0
 342   22:40  999.0   999  999.0   999    999.0   999.0   999.00     999    999.0
 342   22:50  999.0   999  999.0   999    999.0   999.0   999.00     999    999.0
 342   23:00  999.0   999  999.0   999    999.0   999.0   999.00     999    999.0
 342   23:10  999.0   999  999.0   999    999.0   999.0   999.00     999    999.0
 342   23:20  999.0   999  999.0   999    999.0   999.0   999.00     999    999.0
 342   23:30  999.0   999  999.0   999    999.0   999.0   999.00     999    999.0
 342   23:40  999.0   999  999.0   999    999.0   999.0   999.00     999    999.0
 342   23:50  999.0   999  999.0   999    999.0   999.0   999.00     999    999.0
 343    0:00  999.0   999  999.0   999    999.0   999.0   999.00     999    999.0
 343    0:10  999.0   999  999.0   999    999.0   999.0   999.00     999    999.0
 343    0:20  999.0   999  999.0   999    999.0   999.0   999.00     999    999.0
 343    0:30  999.0   999  999.0   999    999.0   999.0   999.00     999    999.0
 343    0:40  999.0   999  999.0   999    999.0   999.0   999.00     999    999.0
 343    0:50  999.0   999  999.0   999    999.0   999.0   999.00     999    999.0
 343    1:00  999.0   999  999.0   999    999.0   999.0   999.00     999    999.0
 343    1:10  999.0   999  999.0   999    999.0   999.0   999.00     999    999.0
 343    1:20  999.0   999  999.0   999    999.0   999.0   999.00     999    999.0
 343    1:30  999.0   999  999.0   999    999.0   999.0   999.00     999    999.0
 343    1:40  999.0   999  999.0   999    999.0   999.0   999.00     999    999.0
 343    1:50  999.0   999  999.0   999    999.0   999.0   999.00     999    999.0
 343    2:00  999.0   999  999.0   999    999.0   999.0   999.00     999    999.0
 343    2:10  999.0   999  999.0   999    999.0   999.0   999.00     999    999.0
 343    2:20  999.0   999  999.0   999    999.0   999.0   999.00     999    999.0
 343    2:30  999.0   999  999.0   999    999.0   999.0   999.00     999    999.0
 343    2:40   24.0    92    5.5   184      9.2   600.3    0.00       0    999.0
 343    2:50   24.2    92    5.6   185      9.5   600.3    0.00       0    999.0
 343    3:00   24.3    92    6.3   189     10.7   600.2    0.00       0    999.0
 343    3:10   24.2    92    5.9   187     10.6   600.2    0.00       0    999.0
 343    3:20   24.2    92    5.4   169     12.2   600.4    0.00       0    999.0
 343    3:30   24.2    92    6.0   173     11.3   600.2    0.00       0    999.0
 343    3:40   24.2    92    4.7   177      9.4   600.3    0.00       0    999.0
 343    3:50   24.3    92    5.6   170      9.6   600.2    0.00       0    999.0
 343    4:00   24.3    92    5.8   173     14.1   600.2    0.00       0    999.0
 343    4:10   24.2    92    5.1   176     10.5   600.3    0.00       0    999.0
 343    4:20   24.3    92    4.3   146      9.5   600.2    0.00       0    999.0
 343    4:30   24.4    92    4.1   181      9.3   600.4    0.00       0    999.0
 343    4:40   24.2    93    4.2   164      7.8   600.4    0.00       0    999.0
 343    4:50   24.2    93    3.4   154      5.5   600.3    0.00       0    999.0
 343    5:00   24.2    93    4.4   143      8.6   600.3    0.00       0    999.0
 343    5:10   24.1    93    5.0   166      8.0   600.4    0.00       0    999.0
 343    5:20   24.6    94    3.8   160      6.6   600.4    0.00       0    999.0
 343    5:30   24.4    93    4.2   146      9.7   600.2    0.00       0    999.0
 343    5:40   24.1    93    5.4   163      9.1   600.2    0.00       0    999.0
 343    5:50   24.7    94    4.2   194      8.7   600.3    0.00       0    999.0
 343    6:00   25.0    93    5.0   156      7.8   600.1    0.00       0    999.0
 343    6:10   24.9    93    4.7   167      8.0   600.2    0.00       0    999.0
 343    6:20   24.5    93    5.8   183     10.2   600.2    0.00       0    999.0
 343    6:30   24.4    93    6.0   197      8.9   600.1    0.00       0    999.0
 343    6:40   24.3    94    6.3   194      9.6   600.1    0.00       0    999.0
 343    6:50   24.2    94    7.5   201     10.4   600.1    0.00       1    999.0
 343    7:00   24.1    94    6.4   201     10.4   600.1    0.00       1    999.0
 343    7:10   24.1    94    2.8   209      7.3   600.1    0.00       2    999.0
 343    7:20   23.8    93    5.1   224      8.7   600.1    0.00       5    999.0
 343    7:30   23.9    93    3.7   206      7.5   600.1    0.00       7    999.0
 343    7:40   24.2    93    1.6   288      5.4   600.1    0.00      12    999.0
 343    7:50   24.9    93    2.2   229      6.4   600.2    0.00      16    999.0
 343    8:00   26.4    93    2.9   199      4.8   600.1    0.00      24    999.0
 343    8:10   27.4    93    3.1   181      5.8   600.1    0.00      28    999.0
 343    8:20   27.4    92    4.2   176      6.3   600.1    0.00      31    999.0
 343    8:30   27.0    92    2.3   150      4.4   600.1    0.00      41    999.0
 343    8:40   26.8    92    2.5   260      5.8   600.1    0.00      38    999.0
 343    8:50   27.0    92    2.4   226      4.4   600.1    0.00      42    999.0
 343    9:00   27.1    92    1.9   209      4.6   600.1    0.00      64    999.0
 343    9:10   28.1    91    2.7   154      6.1   600.2    0.00      94    999.0
 343    9:20   28.8    90    2.7   144      7.9   600.2    0.00      72    999.0
 343    9:30   28.7    90    2.8   121      5.6   600.4    0.00     171    999.0
 343    9:40   29.4    89    4.8    79     14.2   600.4    0.00     367    999.0
 343    9:50   29.8    88    5.3    80     10.4   600.3    0.00     387    999.0
 343   10:00   31.3    87    4.7    97     15.2   600.3    0.02     422    999.0
 343   10:10   33.3    85    4.2   100     16.6   600.1    0.02     356    999.0
 343   10:20   37.2    81    7.2   128     20.3   600.1    0.03     385    999.0
 343   10:30   44.2    71   11.3   212     24.2   600.1    0.05     427    999.0
 343   10:40   47.8    64   12.5   198     28.6   600.1    0.04     438    999.0
 343   10:50   48.2    63   10.7   251     25.3   600.1    0.00     467    999.0
 343   11:00   48.2    62    7.8   269     20.6   600.2    0.00     432    999.0
 343   11:10   50.5    59    7.7   237     20.3   600.5    0.00     490    999.0
 343   11:20   51.4    56    8.9   264     24.6   600.4    0.00     489    999.0
 343   11:30   50.7    56   15.5   256     30.0   600.2    0.00     494    999.0
 343   11:40   50.3    57   18.0   254     30.2   600.1    0.00     493    999.0
 343   11:50   50.4    58   19.2   249     30.0   600.1    0.00     496    999.0
 343   12:00   51.3    56   20.0   238     33.3   600.1    0.00     508    999.0
 343   12:10   51.8    54   21.6   238     43.0   600.2    0.00     493    999.0
 343   12:20   52.2    53   22.2   251     44.5   600.1    0.00     519    999.0
 343   12:30   52.0    53   27.1   258     41.9   600.1    0.00     515    999.0
 343   12:40   52.3    53   24.4   254     42.2   600.1    0.00     511    999.0
 343   12:50   52.3    54   22.2   255     36.3   600.1    0.00     506    999.0
 343   13:00   52.4    54   26.3   262     38.4   600.1    0.00     501    999.0
 343   13:10   52.1    57   22.7   259     39.5   600.1    0.00     495    999.0
 343   13:20   51.7    58   22.5   264     42.0   600.1    0.00     423    999.0
 343   13:30   51.8    57   22.1   262     38.7   600.1    0.00     426    999.0
 343   13:40   52.2    57   20.4   259     34.0   600.1    0.00     466    999.0
 343   13:50   52.4    57   14.8   250     25.1   600.2    0.00     399    999.0
 343   14:00   53.3    52   17.3   245     36.0   600.1    0.00     428    999.0
 343   14:10   52.7    53   19.2   247     35.9   600.1    0.00     371    999.0
 343   14:20   52.4    52   17.7   251     41.5   600.1    0.00     303    999.0
 343   14:30   51.6    54   20.8   257     34.8   600.1    0.00     246    999.0
 343   14:40   51.9    54   19.9   252     42.2   600.1    0.00     322    999.0
 343   14:50   52.2    52   20.0   254     39.7   600.1    0.00     305    999.0
 343   15:00   51.8    52   21.9   259     40.6   600.1    0.00     240    999.0
 343   15:10   51.7    54   16.4   254     27.8   600.1    0.00     221    999.0
 343   15:20   51.0    55   16.2   250     31.6   600.1    0.00      92    999.0
 343   15:30   50.7    54   17.0   249     33.2   600.1    0.00      62    999.0
 343   15:40   50.6    55   12.4   247     34.6   600.1    0.00      60    999.0
 343   15:50   51.0    52   13.4   236     32.9   600.1    0.00      50    999.0
 343   16:00   50.9    51   12.1   246     25.9   600.1    0.00      42    999.0
 343   16:10   50.7    52   10.3   221     26.7   600.1    0.00      53    999.0
 343   16:20   51.3    50    8.3   230     23.8   600.1    0.00      46    999.0
 343   16:30   51.1    51    4.0   243     10.4   600.1    0.00      33    999.0
 343   16:40   50.8    52    6.4   239     13.2   600.1    0.00      11    999.0
 343   16:50   50.7    52    7.5   204     18.9   600.1    0.00       1    999.0
 343   17:00   51.1    51   10.6   211     30.2   600.1    0.00       1    999.0
 343   17:10   50.9    50   10.7   254     23.8   600.1    0.00       0    999.0
 343   17:20   50.5    54   11.2   255     27.2   600.1    0.00       0    999.0
 343   17:30   50.2    56   11.6   228     24.8   600.1    0.00       0    999.0

Return to Yerington, Nevada graphs page.


Western Regional Climate Center,wrcc@dri.edu